GMFF/FEZ METAR and TAF weather

Enter ICAO airport designator
Station Type Date Time Source
GMFF METAR 2021/09/25 13:30 UTC NOAA

GMFF 251330Z 30008KT 210V340 CAVOK 28/13 Q1020 NOSIG


Station Type Date Time Source
GMFF Decoded METAR 2021/09/25 13:30 UTC NOAA

Fes-Sais, Morocco (GMFF) 33-56N 004-59W 579M
Sep 25, 2021 - 09:30 AM EDT / 2021.09.25 1330 UTC
Wind: from the WNW (300 degrees) at 9 MPH (8 KT) (direction variable):0
Visibility: greater than 7 mile(s):0
Temperature: 82 F (28 C)
Dew Point: 55 F (13 C)
Relative Humidity: 39%
Pressure (altimeter): 30.12 in. Hg (1020 hPa)
ob: GMFF 251330Z 30008KT 210V340 CAVOK 28/13 Q1020 NOSIG
cycle: 13

Station Type Date Time Source
GMFF TAF 2021/09/25 12:18 UTC NOAA

TAF TAF GMFF 251100Z 2512/2618 34008KT CAVOK

Example: see airport list